This is the latest recevied weather packets stored in our database for station/object HB9BHU-8. If no packets are shown the sender has not sent any weather packets the latest 10 day(s).
| Time | Temp. | Humidity | Pressure | Rain* | Wind** | Luminosity | Snow |
|---|---|---|---|---|---|---|---|
| 1777389359 | 18.89° C | 53% | 1016.8 hPa | 0 mm | - | - | - |
| 1777386659 | 18.89° C | 51% | 1016.7 hPa | 0 mm | - | - | - |
| 1777383986 | 20° C | 48% | 1016.5 hPa | 0 mm | - | - | - |
| 1777374045 | 19.44° C | 49% | 1016.8 hPa | 0 mm | - | - | - |
| 1777372241 | 18.89° C | 50% | 1016.8 hPa | 0 mm | - | - | - |
| 1777363218 | 13.33° C | 66% | 1017.3 hPa | 0 mm | - | - | - |
| 1777360515 | 11.67° C | 71% | 1017.3 hPa | 0 mm | - | - | - |
| 1777358712 | 10.56° C | 75% | 1017.6 hPa | 0 mm | - | - | - |
| 1777357810 | 10° C | 75% | 1017.5 hPa | 0 mm | - | - | - |
| 1777353368 | 8.89° C | 75% | 1017.2 hPa | 0 mm | - | - | - |
| 1777352454 | 8.89° C | 74% | 1017.2 hPa | 0 mm | - | - | - |
| 1777340726 | 11.11° C | 66% | 1017.8 hPa | 0 mm | - | - | - |
| 1777330825 | 13.33° C | 61% | 1017.9 hPa | 0 mm | - | - | - |
| 1777325458 | 15.56° C | 55% | 1018.2 hPa | 0 mm | - | - | - |
| 1777318257 | 17.78° C | 47% | 1018.5 hPa | 0 mm | - | - | - |
| 1777317367 | 18.33° C | 45% | 1018.5 hPa | 0 mm | - | - | - |
| 1777310155 | 21.67° C | 32% | 1018.3 hPa | 0 mm | - | - | - |
| 1777308348 | 22.22° C | 31% | 1018.5 hPa | 0 mm | - | - | - |
| 1777299335 | 22.78° C | 30% | 1019.5 hPa | 0 mm | - | - | - |
| 1777293029 | 21.67° C | 36% | 1020.4 hPa | 0 mm | - | - | - |
| 1777289415 | 21.11° C | 38% | 1021 hPa | 0 mm | - | - | - |
| 1777283160 | 18.89° C | 46% | 1021.8 hPa | 0 mm | - | - | - |
| 1777276836 | 12.78° C | 65% | 1022.9 hPa | 0 mm | - | - | - |
| 1777275030 | 11.11° C | 68% | 1022.9 hPa | 0 mm | - | - | - |
| 1777271424 | 10° C | 70% | 1023.1 hPa | 0 mm | - | - | - |
* Rain latest hour (hover to see other rain measurements)
** Current wind speed in m/s (hover to see current wind gust speed)